Time;durP1;ratioP1;P1;durP2;ratioP2;P2;SDS_P1;SDS_P2;PMS_P1;PMS_P2;Temp;Humidity;BMP_temperature;BMP_pressure;BME280_temperature;BME280_humidity;BME280_pressure;Samples;Min_cycle;Max_cycle;Signal;HPM_P1;HPM_P2
2021/08/27 00:00:09;;;;;;;2.55;1.10;;;17.60;99.90;;;;;;5052452;28;20191;-75
2021/08/27 00:02:36;;;;;;;2.45;1.17;;;17.60;99.90;;;;;;5052137;28;20247;-75
2021/08/27 00:05:03;;;;;;;2.75;1.15;;;17.60;99.90;;;;;;5041998;28;20191;-75
2021/08/27 00:07:31;;;;;;;2.95;1.08;;;17.60;99.90;;;;;;5049963;28;20199;-75
2021/08/27 00:09:57;;;;;;;2.13;1.02;;;17.60;99.90;;;;;;5050904;28;20253;-75
2021/08/27 00:12:24;;;;;;;2.13;0.90;;;17.50;99.90;;;;;;5032803;28;20196;-75
2021/08/27 00:14:50;;;;;;;1.58;1.40;;;17.50;99.90;;;;;;5038425;28;20245;-75
2021/08/27 00:17:17;;;;;;;2.45;1.15;;;17.50;99.90;;;;;;5048177;28;20192;-75
2021/08/27 00:19:44;;;;;;;2.17;1.05;;;17.50;99.90;;;;;;5051049;28;20561;-75
2021/08/27 00:22:10;;;;;;;1.27;1.05;;;17.50;99.90;;;;;;5052027;28;20611;-75
2021/08/27 00:24:38;;;;;;;1.92;1.00;;;17.50;99.90;;;;;;5047968;28;20249;-76
2021/08/27 00:27:05;;;;;;;1.98;1.00;;;17.50;99.90;;;;;;5052031;28;20257;-75
2021/08/27 00:29:32;;;;;;;1.95;1.02;;;17.50;99.90;;;;;;5051610;28;20196;-76
2021/08/27 00:31:58;;;;;;;4.07;1.95;;;17.50;99.90;;;;;;5051305;28;20191;-75
2021/08/27 00:34:25;;;;;;;4.95;1.20;;;17.50;99.90;;;;;;5047656;28;20191;-75
2021/08/27 00:36:52;;;;;;;1.27;1.00;;;17.50;99.90;;;;;;5051859;28;20187;-75
2021/08/27 00:39:18;;;;;;;1.40;0.90;;;17.50;99.90;;;;;;5047479;28;20314;-75
2021/08/27 00:41:46;;;;;;;3.38;1.15;;;17.40;99.90;;;;;;5051710;28;20300;-75
2021/08/27 00:44:13;;;;;;;3.83;1.20;;;17.40;99.90;;;;;;5052039;28;20195;-75
2021/08/27 00:46:40;;;;;;;1.95;1.30;;;17.40;99.90;;;;;;5050659;28;20214;-75
2021/08/27 00:49:06;;;;;;;2.05;0.95;;;17.40;99.90;;;;;;5041348;28;20707;-75
2021/08/27 00:51:33;;;;;;;3.05;1.00;;;17.40;99.90;;;;;;5048575;28;20195;-76
2021/08/27 00:54:00;;;;;;;2.28;0.90;;;17.40;99.90;;;;;;5037564;28;20266;-75
2021/08/27 00:56:27;;;;;;;1.83;1.17;;;17.40;99.90;;;;;;5045431;28;20191;-75
2021/08/27 00:58:56;;;;;;;1.50;0.98;;;17.40;99.90;;;;;;5050839;28;20195;-75
2021/08/27 01:01:22;;;;;;;2.20;0.98;;;17.40;99.90;;;;;;5047796;28;20219;-75
2021/08/27 01:03:49;;;;;;;3.53;1.05;;;17.40;99.90;;;;;;5046364;28;20207;-76
2021/08/27 01:06:24;;;;;;;1.58;1.00;;;17.50;99.90;;;;;;5050787;28;20199;-75
2021/08/27 01:08:57;;;;;;;3.50;1.15;;;17.40;99.90;;;;;;5044710;28;20199;-75
2021/08/27 01:11:31;;;;;;;1.88;1.00;;;17.40;99.90;;;;;;5047021;28;20234;-75
2021/08/27 01:14:03;;;;;;;3.13;1.30;;;17.40;99.90;;;;;;5051403;28;20242;-75
2021/08/27 01:16:36;;;;;;;6.65;1.10;;;17.40;99.90;;;;;;5047302;28;20196;-75
2021/08/27 01:19:28;;;;;;;1.85;1.30;;;17.30;99.90;;;;;;5036147;28;20248;-75
2021/08/27 01:22:19;;;;;;;2.35;0.95;;;17.30;99.90;;;;;;5049973;28;20223;-75
2021/08/27 01:24:48;;;;;;;3.05;1.08;;;17.40;99.90;;;;;;5045180;28;20206;-75
2021/08/27 01:27:18;;;;;;;1.85;1.05;;;17.30;99.90;;;;;;5050043;28;20602;-75
2021/08/27 01:30:02;;;;;;;5.95;1.10;;;17.30;99.90;;;;;;5051037;28;20748;-75
2021/08/27 01:32:38;;;;;;;1.85;0.90;;;17.30;99.90;;;;;;5031725;28;20203;-75
2021/08/27 01:35:08;;;;;;;2.15;1.30;;;17.30;99.90;;;;;;5050927;28;20188;-75
2021/08/27 01:37:37;;;;;;;1.60;1.10;;;17.30;99.90;;;;;;5051375;28;20249;-76
2021/08/27 01:40:05;;;;;;;3.05;1.20;;;17.30;99.90;;;;;;5039116;28;20192;-75
2021/08/27 01:42:33;;;;;;;2.75;1.75;;;17.30;99.90;;;;;;5050159;28;20332;-76
2021/08/27 01:45:01;;;;;;;2.85;1.20;;;17.30;99.90;;;;;;5049750;28;20242;-76
2021/08/27 01:47:32;;;;;;;3.28;1.08;;;17.30;99.90;;;;;;5050671;28;20222;-75
2021/08/27 01:50:00;;;;;;;1.45;1.20;;;17.20;99.90;;;;;;5031394;28;20200;-75
2021/08/27 01:52:28;;;;;;;2.30;0.90;;;17.20;99.90;;;;;;5046045;28;20648;-75
2021/08/27 01:54:57;;;;;;;1.85;1.00;;;17.20;99.90;;;;;;5048879;28;20393;-75
2021/08/27 01:57:25;;;;;;;2.53;1.20;;;17.20;99.90;;;;;;5049894;28;20203;-76
2021/08/27 01:59:53;;;;;;;4.30;1.05;;;17.20;99.90;;;;;;5050747;28;20199;-75
2021/08/27 02:02:21;;;;;;;2.20;1.20;;;17.20;99.90;;;;;;5049552;28;20216;-76
2021/08/27 02:04:50;;;;;;;2.78;1.40;;;17.20;99.90;;;;;;5050924;28;20200;-75
2021/08/27 02:07:18;;;;;;;2.03;1.20;;;17.20;99.90;;;;;;5049587;28;20246;-75
2021/08/27 02:09:47;;;;;;;2.17;0.90;;;17.10;99.90;;;;;;5044241;28;20265;-75
2021/08/27 02:12:15;;;;;;;2.53;0.90;;;17.10;99.90;;;;;;5050729;28;20192;-76
2021/08/27 02:14:43;;;;;;;2.65;1.25;;;17.10;99.90;;;;;;5054791;28;20191;-75
2021/08/27 02:17:10;;;;;;;1.30;1.00;;;17.10;99.90;;;;;;5053778;28;20195;-75
2021/08/27 02:19:38;;;;;;;2.65;1.27;;;17.20;99.90;;;;;;5052222;28;20223;-75
2021/08/27 02:22:07;;;;;;;4.03;1.20;;;17.10;99.90;;;;;;5054382;28;20208;-75
2021/08/27 02:24:40;;;;;;;2.25;1.00;;;17.10;99.90;;;;;;5043702;28;20196;-75
2021/08/27 02:27:09;;;;;;;2.85;1.10;;;17.10;99.90;;;;;;5053986;28;20269;-75
2021/08/27 02:29:39;;;;;;;2.10;1.40;;;17.10;99.90;;;;;;5052744;28;20611;-75
2021/08/27 02:32:09;;;;;;;2.95;1.10;;;17.10;99.90;;;;;;5042443;28;20235;-75
2021/08/27 02:34:40;;;;;;;3.45;1.00;;;17.10;99.90;;;;;;5048485;28;20196;-75
2021/08/27 02:37:08;;;;;;;2.30;1.20;;;17.00;99.90;;;;;;5054026;28;20199;-75
2021/08/27 02:39:35;;;;;;;1.35;1.05;;;17.10;99.90;;;;;;5035062;28;20250;-75
2021/08/27 02:42:02;;;;;;;3.05;1.23;;;17.10;99.90;;;;;;5053690;28;20207;-76
2021/08/27 02:44:31;;;;;;;4.60;1.27;;;17.10;99.90;;;;;;5053153;28;20253;-76
2021/08/27 02:46:57;;;;;;;1.48;1.10;;;17.00;99.90;;;;;;5052319;28;20725;-76
2021/08/27 02:49:24;;;;;;;3.40;1.00;;;17.10;99.90;;;;;;5053759;28;20210;-76
2021/08/27 02:51:59;;;;;;;3.25;0.80;;;17.00;99.90;;;;;;5054158;28;20656;-76
2021/08/27 02:54:32;;;;;;;1.30;0.88;;;17.00;99.90;;;;;;5048773;28;20538;-77
2021/08/27 02:57:02;;;;;;;2.42;1.65;;;17.00;99.90;;;;;;5051841;28;20200;-75
2021/08/27 02:59:32;;;;;;;1.45;1.20;;;17.00;99.90;;;;;;5053656;28;20278;-75
2021/08/27 03:02:02;;;;;;;1.85;1.20;;;17.00;99.90;;;;;;5049507;28;20237;-75
2021/08/27 03:04:49;;;;;;;5.00;2.75;;;16.90;99.90;;;;;;5051534;28;20191;-76
2021/08/27 03:07:20;;;;;;;2.03;1.00;;;16.90;99.90;;;;;;5052455;28;20228;-76
2021/08/27 03:09:55;;;;;;;1.90;1.27;;;17.00;99.90;;;;;;5052599;28;20204;-76
2021/08/27 03:12:32;;;;;;;2.65;1.13;;;17.00;99.90;;;;;;5053337;28;20190;-76
2021/08/27 03:15:01;;;;;;;2.63;1.35;;;16.90;99.90;;;;;;5051256;28;20192;-76
2021/08/27 03:17:35;;;;;;;2.30;1.30;;;17.00;99.90;;;;;;5052396;28;20191;-76
2021/08/27 03:20:10;;;;;;;3.55;1.60;;;17.00;99.90;;;;;;5052396;28;20212;-74
2021/08/27 03:22:43;;;;;;;3.45;1.20;;;17.00;99.90;;;;;;5053676;28;20219;-75
2021/08/27 03:25:11;;;;;;;2.10;1.00;;;17.00;99.90;;;;;;5043148;28;21435;-75
2021/08/27 03:27:42;;;;;;;2.30;1.20;;;16.90;99.90;;;;;;5049356;28;20207;-75
2021/08/27 03:30:16;;;;;;;2.10;1.00;;;16.90;99.90;;;;;;5050316;28;20196;-77
2021/08/27 03:32:46;;;;;;;3.78;1.60;;;16.90;99.90;;;;;;5042610;28;20204;-75
2021/08/27 03:35:14;;;;;;;2.97;1.00;;;16.90;99.90;;;;;;5048158;28;20184;-76
2021/08/27 03:37:41;;;;;;;1.73;0.90;;;16.90;99.90;;;;;;5053468;28;20234;-75
2021/08/27 03:40:10;;;;;;;2.60;1.10;;;16.90;99.90;;;;;;5047848;28;20187;-76
2021/08/27 03:42:39;;;;;;;2.38;1.10;;;16.90;99.90;;;;;;5051817;28;20648;-75
2021/08/27 03:45:07;;;;;;;3.10;1.23;;;16.90;99.90;;;;;;5053260;28;20195;-75
2021/08/27 03:47:37;;;;;;;2.10;1.05;;;16.90;99.90;;;;;;5047587;28;20192;-75
2021/08/27 03:50:05;;;;;;;1.50;1.02;;;16.90;99.90;;;;;;5053084;28;20625;-75
2021/08/27 03:52:32;;;;;;;3.38;1.35;;;16.90;99.90;;;;;;5052707;28;20245;-75
2021/08/27 03:55:00;;;;;;;3.55;1.17;;;16.90;99.90;;;;;;5050251;28;20207;-76
2021/08/27 03:57:28;;;;;;;1.75;1.02;;;16.90;99.90;;;;;;5051739;28;20191;-75
2021/08/27 03:59:55;;;;;;;3.10;0.93;;;16.90;99.90;;;;;;5051651;28;20249;-75
2021/08/27 04:02:22;;;;;;;1.95;1.30;;;16.90;99.90;;;;;;5050912;28;20207;-75
2021/08/27 04:04:50;;;;;;;3.15;1.13;;;16.90;99.90;;;;;;5052797;28;20192;-75
2021/08/27 04:07:19;;;;;;;1.98;1.20;;;16.90;99.90;;;;;;5051942;28;20184;-75
2021/08/27 04:09:46;;;;;;;3.40;1.15;;;16.80;99.90;;;;;;5050984;28;20230;-75
2021/08/27 04:12:12;;;;;;;2.28;1.10;;;16.90;99.90;;;;;;5051342;28;20222;-74
2021/08/27 04:14:39;;;;;;;2.70;1.35;;;16.90;99.90;;;;;;5052734;28;20195;-75
2021/08/27 04:17:06;;;;;;;3.80;1.10;;;16.90;99.90;;;;;;5051447;28;20203;-74
2021/08/27 04:19:35;;;;;;;3.05;1.98;;;16.90;99.90;;;;;;5051411;28;20215;-75
2021/08/27 04:22:03;;;;;;;1.60;1.02;;;16.90;99.90;;;;;;5050823;28;20286;-75
2021/08/27 04:24:30;;;;;;;1.73;1.20;;;16.80;99.90;;;;;;5050283;28;20207;-76
2021/08/27 04:26:57;;;;;;;2.28;1.00;;;16.80;99.90;;;;;;5051798;28;20246;-75
2021/08/27 04:29:23;;;;;;;3.47;1.05;;;16.80;99.90;;;;;;5051518;28;20234;-75
2021/08/27 04:31:50;;;;;;;2.47;1.10;;;16.80;99.90;;;;;;5048435;28;20249;-75
2021/08/27 04:34:17;;;;;;;3.65;1.30;;;16.80;99.90;;;;;;5049583;28;20195;-75
2021/08/27 04:36:43;;;;;;;3.40;1.00;;;16.80;99.90;;;;;;5051006;28;20192;-75
2021/08/27 04:39:11;;;;;;;3.90;1.23;;;16.80;99.90;;;;;;5048804;28;20846;-75
2021/08/27 04:41:38;;;;;;;1.60;1.20;;;16.90;99.90;;;;;;5052231;28;20191;-75
2021/08/27 04:44:05;;;;;;;3.08;1.17;;;16.80;99.90;;;;;;5051553;28;20223;-75
2021/08/27 04:46:32;;;;;;;1.75;1.00;;;16.70;99.90;;;;;;5050350;28;20545;-76
2021/08/27 04:48:59;;;;;;;3.03;1.20;;;16.70;99.90;;;;;;5045662;28;20200;-76
2021/08/27 04:51:26;;;;;;;1.10;0.80;;;16.80;99.90;;;;;;5051200;28;20595;-76
2021/08/27 04:53:53;;;;;;;3.25;1.48;;;16.70;99.90;;;;;;5043021;28;20210;-75
2021/08/27 04:56:21;;;;;;;1.98;1.05;;;16.80;99.90;;;;;;5051069;28;20641;-75
2021/08/27 04:58:48;;;;;;;2.30;1.50;;;16.80;99.90;;;;;;5050573;28;20249;-75
2021/08/27 05:01:14;;;;;;;4.50;1.17;;;16.80;99.90;;;;;;5049969;28;20256;-75
2021/08/27 05:03:41;;;;;;;3.70;1.42;;;16.80;99.90;;;;;;5039785;28;20273;-75
2021/08/27 05:06:08;;;;;;;5.95;1.42;;;16.80;99.90;;;;;;5036849;28;20199;-76
2021/08/27 05:08:35;;;;;;;2.17;1.33;;;16.70;99.90;;;;;;5045781;28;20258;-75
2021/08/27 05:11:01;;;;;;;3.53;1.30;;;16.80;99.90;;;;;;5044463;28;20200;-75
2021/08/27 05:13:29;;;;;;;1.98;1.50;;;16.80;99.90;;;;;;5051378;28;20671;-76
2021/08/27 05:15:56;;;;;;;1.50;1.17;;;16.80;99.90;;;;;;5051417;28;20245;-77
2021/08/27 05:18:23;;;;;;;3.15;1.00;;;16.80;99.90;;;;;;5048663;28;20192;-75
2021/08/27 05:20:50;;;;;;;2.10;1.10;;;16.70;99.90;;;;;;5050968;28;20218;-75
2021/08/27 05:23:17;;;;;;;1.52;1.00;;;16.80;99.90;;;;;;5049591;28;20624;-75
2021/08/27 05:25:43;;;;;;;3.28;1.25;;;16.70;99.90;;;;;;5050570;28;20656;-75
2021/08/27 05:28:10;;;;;;;2.25;1.00;;;16.70;99.90;;;;;;5050024;28;20206;-75
2021/08/27 05:30:38;;;;;;;1.60;1.40;;;16.80;99.90;;;;;;5049259;28;20191;-75
2021/08/27 05:33:05;;;;;;;2.05;1.20;;;16.80;99.90;;;;;;5045402;28;20265;-75
2021/08/27 05:35:31;;;;;;;2.42;1.20;;;16.80;99.90;;;;;;5051233;28;20192;-75
2021/08/27 05:37:58;;;;;;;1.73;1.10;;;16.80;99.90;;;;;;5047985;28;20653;-75
2021/08/27 05:40:25;;;;;;;3.05;1.40;;;16.80;99.90;;;;;;5049622;28;20721;-75
2021/08/27 05:42:52;;;;;;;2.08;1.00;;;16.80;99.90;;;;;;5050773;28;20219;-75
2021/08/27 05:45:19;;;;;;;3.35;1.30;;;16.80;99.90;;;;;;5049884;28;20195;-75
2021/08/27 05:47:47;;;;;;;3.28;1.45;;;16.80;99.90;;;;;;5050412;28;20203;-75
2021/08/27 05:50:16;;;;;;;2.65;0.98;;;16.80;99.90;;;;;;5055364;28;20188;-75
2021/08/27 05:52:44;;;;;;;1.45;0.95;;;16.80;99.90;;;;;;5054440;28;20191;-74
2021/08/27 05:55:11;;;;;;;4.07;1.30;;;16.80;99.90;;;;;;5051949;28;20249;-75
2021/08/27 05:57:38;;;;;;;4.80;1.27;;;16.90;99.90;;;;;;5053406;28;20680;-74
2021/08/27 06:00:06;;;;;;;2.75;1.20;;;16.90;99.90;;;;;;5055180;28;20606;-75
2021/08/27 06:02:33;;;;;;;2.10;1.30;;;16.90;99.90;;;;;;5053250;28;20722;-74
2021/08/27 06:05:01;;;;;;;1.92;1.33;;;17.00;99.90;;;;;;5055177;28;20595;-73
2021/08/27 06:07:28;;;;;;;1.67;1.17;;;17.00;99.90;;;;;;5052905;28;20204;-73
2021/08/27 06:09:55;;;;;;;2.30;1.17;;;17.00;99.90;;;;;;5039766;28;20200;-73
2021/08/27 06:12:22;;;;;;;3.75;1.92;;;17.00;99.90;;;;;;5054581;28;20238;-73
2021/08/27 06:14:48;;;;;;;5.13;1.30;;;17.10;99.90;;;;;;5054374;28;20214;-74
2021/08/27 06:17:15;;;;;;;3.35;1.77;;;16.90;99.90;;;;;;5049498;28;20199;-75
2021/08/27 06:19:42;;;;;;;4.32;1.10;;;16.90;99.90;;;;;;5053063;28;20231;-74
2021/08/27 06:22:10;;;;;;;2.83;1.17;;;16.90;99.90;;;;;;5054254;28;20200;-74
2021/08/27 06:24:37;;;;;;;2.38;1.17;;;16.90;99.90;;;;;;5046875;28;20215;-74
2021/08/27 06:27:04;;;;;;;2.33;1.10;;;17.00;99.90;;;;;;5053824;28;20206;-75
2021/08/27 06:29:31;;;;;;;2.05;1.00;;;17.00;99.90;;;;;;5053360;28;20210;-74
2021/08/27 06:31:58;;;;;;;2.30;1.60;;;17.00;99.90;;;;;;5050962;28;20573;-74
2021/08/27 06:34:25;;;;;;;3.05;1.00;;;17.10;99.90;;;;;;5054782;28;20196;-74
2021/08/27 06:36:51;;;;;;;1.50;1.20;;;17.10;99.90;;;;;;5054414;28;20241;-74
2021/08/27 06:39:20;;;;;;;4.65;1.20;;;17.10;99.90;;;;;;5052820;28;20207;-75
2021/08/27 06:41:48;;;;;;;2.00;1.10;;;17.10;99.90;;;;;;5053650;28;20286;-75
2021/08/27 06:44:14;;;;;;;2.90;1.30;;;17.20;99.90;;;;;;5053220;28;20211;-75
2021/08/27 06:46:43;;;;;;;1.30;1.20;;;17.30;99.90;;;;;;5053788;28;20196;-75
2021/08/27 06:49:10;;;;;;;2.22;1.20;;;17.30;99.90;;;;;;5052130;28;20218;-74
2021/08/27 06:51:36;;;;;;;1.60;1.00;;;17.30;99.90;;;;;;5054015;28;20627;-75
2021/08/27 06:54:03;;;;;;;2.65;1.48;;;17.40;99.90;;;;;;5045509;28;20204;-75
2021/08/27 06:56:31;;;;;;;2.20;1.13;;;17.40;99.90;;;;;;5051924;28;20199;-75
2021/08/27 06:58:58;;;;;;;2.47;1.30;;;17.40;99.90;;;;;;5049786;28;20192;-75
2021/08/27 07:01:25;;;;;;;1.67;1.10;;;17.40;99.90;;;;;;5053552;28;20278;-75
2021/08/27 07:03:52;;;;;;;2.13;1.27;;;17.40;99.90;;;;;;5048356;28;20227;-75
2021/08/27 07:06:20;;;;;;;2.35;1.70;;;17.50;99.90;;;;;;5052701;28;20198;-76
2021/08/27 07:08:47;;;;;;;4.00;2.38;;;17.50;99.90;;;;;;5051702;28;20211;-76
2021/08/27 07:11:15;;;;;;;3.08;1.23;;;17.50;99.90;;;;;;5053814;28;20203;-76
2021/08/27 07:13:43;;;;;;;1.90;1.20;;;17.50;99.90;;;;;;5053632;28;20223;-75
2021/08/27 07:16:11;;;;;;;5.15;2.45;;;17.60;99.90;;;;;;5052042;28;20293;-77
2021/08/27 07:18:39;;;;;;;6.60;1.30;;;17.60;99.90;;;;;;5050349;28;20652;-75
2021/08/27 07:21:06;;;;;;;1.58;1.00;;;17.60;99.90;;;;;;5051890;28;20241;-75
2021/08/27 07:23:33;;;;;;;6.28;1.83;;;17.60;99.90;;;;;;5052299;28;20225;-78
2021/08/27 07:26:00;;;;;;;2.15;1.38;;;17.60;99.90;;;;;;5059373;28;20199;-82
2021/08/27 07:28:26;;;;;;;3.63;1.20;;;17.60;99.90;;;;;;5059622;28;20207;-81
2021/08/27 07:30:54;;;;;;;2.95;1.05;;;17.60;99.90;;;;;;5050612;28;20220;-82
2021/08/27 07:33:21;;;;;;;3.88;1.23;;;17.60;99.90;;;;;;5040479;28;20196;-81
2021/08/27 07:35:48;;;;;;;1.13;0.90;;;17.60;99.90;;;;;;5044558;28;20215;-81
2021/08/27 07:38:15;;;;;;;1.90;1.08;;;17.70;99.90;;;;;;5056501;28;20191;-82
2021/08/27 07:40:41;;;;;;;2.28;1.17;;;17.70;99.90;;;;;;5051256;28;20203;-80
2021/08/27 07:43:08;;;;;;;1.40;1.15;;;17.70;99.90;;;;;;5052701;28;20199;-82
2021/08/27 07:45:35;;;;;;;2.13;0.90;;;17.70;99.90;;;;;;5058971;28;20214;-80
2021/08/27 07:48:03;;;;;;;1.48;1.05;;;17.70;99.90;;;;;;5059258;28;20195;-80
2021/08/27 07:50:30;;;;;;;2.05;1.40;;;17.70;99.90;;;;;;5058580;28;20238;-80
2021/08/27 07:52:56;;;;;;;1.20;1.10;;;17.70;99.90;;;;;;5060118;28;20269;-80
2021/08/27 07:55:23;;;;;;;1.58;1.20;;;17.80;99.90;;;;;;5056377;28;20268;-78
2021/08/27 07:57:50;;;;;;;2.25;1.30;;;17.80;99.90;;;;;;5058228;28;20587;-75
2021/08/27 08:00:17;;;;;;;3.33;1.85;;;17.90;99.90;;;;;;5053210;28;20199;-76
2021/08/27 08:02:44;;;;;;;2.45;1.13;;;17.90;99.90;;;;;;5038074;28;20196;-76
2021/08/27 08:05:12;;;;;;;1.52;1.17;;;18.00;99.90;;;;;;5048845;28;20228;-76
2021/08/27 08:07:39;;;;;;;2.80;1.40;;;18.00;99.90;;;;;;5049686;28;20203;-77
2021/08/27 08:10:07;;;;;;;2.95;1.35;;;18.10;99.90;;;;;;5050485;28;20668;-76
2021/08/27 08:12:34;;;;;;;2.72;1.42;;;18.10;99.90;;;;;;5052650;28;20664;-76
2021/08/27 08:15:00;;;;;;;2.00;1.60;;;18.10;99.90;;;;;;5052769;28;20246;-75
2021/08/27 08:17:27;;;;;;;4.35;1.65;;;18.20;99.90;;;;;;5049894;28;20246;-76
2021/08/27 08:19:54;;;;;;;2.25;1.40;;;18.20;99.90;;;;;;5052504;28;20223;-76
2021/08/27 08:22:22;;;;;;;1.73;1.23;;;18.10;99.90;;;;;;5052288;28;20568;-76
2021/08/27 08:24:49;;;;;;;4.00;1.75;;;18.10;99.90;;;;;;5045029;28;20227;-76
2021/08/27 08:27:15;;;;;;;5.97;1.67;;;18.10;99.90;;;;;;5053424;28;20203;-76
2021/08/27 08:29:43;;;;;;;5.30;1.30;;;18.10;99.90;;;;;;5051850;28;20660;-75
2021/08/27 08:32:11;;;;;;;3.00;1.23;;;18.00;99.90;;;;;;5049768;28;20195;-76
2021/08/27 08:34:38;;;;;;;2.65;1.70;;;18.00;99.90;;;;;;5052646;28;20207;-75
2021/08/27 08:37:07;;;;;;;3.45;1.75;;;18.10;99.90;;;;;;5051787;28;20191;-75
2021/08/27 08:39:36;;;;;;;3.10;1.23;;;18.10;99.90;;;;;;5047649;28;20692;-76
2021/08/27 08:42:02;;;;;;;4.97;1.80;;;18.20;99.90;;;;;;5051430;28;20191;-75
2021/08/27 08:44:29;;;;;;;1.50;1.10;;;18.10;99.90;;;;;;5052687;28;20223;-75
2021/08/27 08:46:56;;;;;;;2.00;1.40;;;18.10;99.90;;;;;;5050512;28;20208;-75
2021/08/27 08:49:28;;;;;;;2.17;1.30;;;18.20;99.90;;;;;;5038962;28;20208;-75
2021/08/27 08:51:56;;;;;;;2.15;1.10;;;18.20;99.90;;;;;;5032770;28;20266;-75
2021/08/27 08:54:23;;;;;;;1.95;1.10;;;18.20;99.90;;;;;;5048260;28;20198;-78
2021/08/27 08:56:51;;;;;;;1.88;1.40;;;18.20;99.90;;;;;;5049669;28;20286;-75
2021/08/27 08:59:18;;;;;;;8.93;1.52;;;18.10;99.90;;;;;;5050699;28;20242;-75
2021/08/27 09:01:44;;;;;;;5.55;1.58;;;18.10;99.90;;;;;;5054451;28;20249;-76
2021/08/27 09:04:11;;;;;;;2.17;1.25;;;18.10;99.90;;;;;;5045621;28;20215;-75
2021/08/27 09:06:38;;;;;;;1.77;0.90;;;18.10;99.90;;;;;;5039032;28;20673;-77
2021/08/27 09:09:05;;;;;;;3.53;1.30;;;18.10;99.90;;;;;;5047104;28;20604;-75
2021/08/27 09:11:32;;;;;;;2.67;1.40;;;18.10;99.90;;;;;;5052587;28;20718;-76
2021/08/27 09:14:02;;;;;;;2.95;1.60;;;18.10;99.90;;;;;;5051933;28;20199;-75
2021/08/27 09:16:32;;;;;;;2.58;1.23;;;18.00;99.90;;;;;;5049391;28;20212;-75
2021/08/27 09:18:59;;;;;;;2.33;1.20;;;18.10;99.90;;;;;;5052254;28;20199;-75
2021/08/27 09:21:27;;;;;;;3.65;1.50;;;18.00;99.90;;;;;;5050459;28;20203;-76
2021/08/27 09:24:13;;;;;;;2.33;1.73;;;18.10;99.90;;;;;;5051256;28;20219;-75
2021/08/27 09:26:41;;;;;;;2.22;1.27;;;18.10;99.90;;;;;;5051887;28;20200;-75
2021/08/27 09:29:10;;;;;;;1.92;1.42;;;18.10;99.90;;;;;;5049472;28;20666;-76
2021/08/27 09:31:39;;;;;;;1.73;1.63;;;18.20;99.90;;;;;;5056676;28;20652;-76
2021/08/27 09:34:06;;;;;;;1.90;1.10;;;18.30;99.90;;;;;;5053307;28;20191;-76
2021/08/27 09:36:34;;;;;;;2.20;1.52;;;18.40;99.90;;;;;;5054778;28;20249;-75
2021/08/27 09:39:03;;;;;;;4.15;1.45;;;18.40;99.90;;;;;;5052921;28;20188;-75
2021/08/27 09:41:30;;;;;;;3.65;1.40;;;18.50;99.90;;;;;;5055534;28;20249;-75
2021/08/27 09:43:57;;;;;;;2.72;1.40;;;18.70;99.90;;;;;;5055091;28;20695;-74
2021/08/27 09:46:36;;;;;;;3.30;1.20;;;18.50;99.90;;;;;;5053815;28;20218;-75
2021/08/27 09:49:06;;;;;;;4.80;1.80;;;18.30;99.90;;;;;;5052365;28;20195;-75
2021/08/27 09:51:42;;;;;;;4.00;1.27;;;18.40;99.90;;;;;;5055196;28;20192;-77
2021/08/27 09:54:09;;;;;;;2.67;1.40;;;18.30;99.90;;;;;;5054395;28;20199;-75
2021/08/27 09:56:44;;;;;;;2.95;1.80;;;18.40;99.90;;;;;;5052989;28;20712;-75
2021/08/27 09:59:12;;;;;;;2.33;1.60;;;18.30;99.90;;;;;;5050944;28;20559;-75
2021/08/27 10:01:47;;;;;;;2.10;1.10;;;18.40;99.90;;;;;;5051676;28;20261;-76
2021/08/27 10:04:14;;;;;;;3.20;1.17;;;18.40;99.90;;;;;;5048685;28;20834;-75
2021/08/27 10:06:41;;;;;;;1.55;1.25;;;18.50;99.90;;;;;;5046475;28;20758;-76
2021/08/27 10:09:08;;;;;;;3.50;2.00;;;18.60;99.90;;;;;;5042605;28;20784;-76
2021/08/27 10:11:35;;;;;;;1.27;1.13;;;18.70;99.90;;;;;;5055026;28;20207;-76
2021/08/27 10:14:03;;;;;;;1.25;1.00;;;18.60;99.90;;;;;;5052847;28;20188;-77
2021/08/27 10:16:30;;;;;;;2.65;1.33;;;18.70;99.90;;;;;;5053591;28;20200;-77
2021/08/27 10:18:59;;;;;;;3.53;1.30;;;18.80;99.90;;;;;;5047551;28;20207;-79
2021/08/27 10:21:26;;;;;;;1.70;1.10;;;18.80;99.90;;;;;;5040585;28;20195;-78
2021/08/27 10:23:53;;;;;;;1.65;1.20;;;18.80;99.90;;;;;;5056758;28;20534;-78
2021/08/27 10:26:22;;;;;;;1.88;1.10;;;18.80;99.90;;;;;;5055990;28;20663;-78
2021/08/27 10:28:50;;;;;;;4.63;1.35;;;18.90;99.90;;;;;;5054065;28;20199;-77
2021/08/27 10:31:17;;;;;;;1.50;1.10;;;18.90;99.90;;;;;;5053962;28;20230;-77
2021/08/27 10:34:06;;;;;;;2.63;1.40;;;19.00;99.90;;;;;;5043178;28;20600;-77
2021/08/27 10:36:44;;;;;;;3.10;1.20;;;19.00;99.90;;;;;;5053640;28;20199;-78
2021/08/27 10:39:11;;;;;;;3.25;1.17;;;19.00;99.90;;;;;;5047411;28;20200;-76
2021/08/27 10:41:39;;;;;;;1.20;0.90;;;19.00;99.90;;;;;;5053765;28;20200;-77
2021/08/27 10:44:08;;;;;;;3.88;0.90;;;19.00;99.90;;;;;;5054564;28;20195;-77
2021/08/27 10:47:03;;;;;;;2.70;1.15;;;19.00;99.90;;;;;;5052708;28;20282;-77
2021/08/27 10:50:02;;;;;;;3.17;1.60;;;19.00;99.90;;;;;;5041541;28;20607;-77
2021/08/27 10:52:37;;;;;;;3.38;1.30;;;19.10;99.90;;;;;;5046912;28;20584;-77
2021/08/27 10:55:18;;;;;;;1.92;1.38;;;19.10;99.90;;;;;;5041656;28;20199;-76
2021/08/27 10:57:47;;;;;;;3.72;1.45;;;19.00;99.90;;;;;;5053419;28;20195;-76
2021/08/27 11:00:29;;;;;;;1.65;0.80;;;18.90;99.90;;;;;;5052201;28;20664;-76
2021/08/27 11:02:55;;;;;;;1.42;0.90;;;19.00;99.90;;;;;;5052615;28;20655;-77
2021/08/27 11:05:35;;;;;;;4.13;0.90;;;18.90;99.90;;;;;;5033675;28;20282;-77
2021/08/27 11:08:06;;;;;;;2.60;1.40;;;19.00;99.90;;;;;;5050866;28;20195;-77
2021/08/27 11:10:35;;;;;;;2.80;0.85;;;19.00;99.90;;;;;;5052022;28;20202;-77
2021/08/27 11:13:06;;;;;;;1.55;1.02;;;19.00;99.90;;;;;;5055508;28;20246;-77
2021/08/27 11:15:33;;;;;;;2.35;1.55;;;19.00;99.90;;;;;;5054154;28;20207;-77
2021/08/27 11:18:24;;;;;;;1.50;1.10;;;18.90;99.90;;;;;;5046775;28;20596;-78
2021/08/27 11:20:54;;;;;;;1.02;0.80;;;18.90;99.90;;;;;;5052296;28;20646;-77
2021/08/27 11:23:21;;;;;;;1.50;0.80;;;18.90;99.90;;;;;;5050996;28;20195;-77
2021/08/27 11:26:03;;;;;;;1.30;1.05;;;18.90;99.90;;;;;;5033710;28;20215;-77
2021/08/27 11:28:32;;;;;;;1.75;1.10;;;18.90;99.90;;;;;;5049523;28;20207;-78
2021/08/27 11:31:10;;;;;;;2.50;1.20;;;19.00;99.90;;;;;;5053484;28;20195;-77
2021/08/27 11:34:01;;;;;;;1.80;1.00;;;19.00;99.90;;;;;;5041936;28;20199;-77
2021/08/27 11:36:35;;;;;;;2.45;1.10;;;19.00;99.90;;;;;;5054494;28;20196;-78
2021/08/27 11:39:01;;;;;;;1.58;0.93;;;19.00;99.90;;;;;;5045594;28;20250;-77
2021/08/27 11:41:28;;;;;;;1.30;1.10;;;19.10;99.90;;;;;;5046789;28;20199;-77
2021/08/27 11:44:13;;;;;;;1.88;1.25;;;19.10;99.90;;;;;;5053207;28;20196;-77
2021/08/27 11:46:47;;;;;;;2.17;1.00;;;19.10;99.90;;;;;;5050980;28;20231;-77
2021/08/27 11:49:38;;;;;;;1.83;1.00;;;19.10;99.90;;;;;;5051104;28;20191;-77
2021/08/27 11:52:26;;;;;;;4.13;1.08;;;19.20;99.90;;;;;;5048172;28;20283;-76
2021/08/27 11:55:00;;;;;;;5.00;1.23;;;19.10;99.90;;;;;;5043580;28;20617;-77
2021/08/27 11:57:27;;;;;;;2.22;1.23;;;19.20;99.90;;;;;;5051619;28;20217;-76
2021/08/27 12:00:04;;;;;;;2.20;0.90;;;19.20;99.90;;;;;;5051815;28;20199;-77
2021/08/27 12:02:31;;;;;;;5.13;1.08;;;19.20;99.90;;;;;;5043645;28;20204;-76
2021/08/27 12:04:59;;;;;;;2.05;1.00;;;19.20;99.90;;;;;;5038974;28;20215;-77
2021/08/27 12:07:30;;;;;;;1.52;1.15;;;19.20;99.90;;;;;;5051761;28;20260;-76
2021/08/27 12:10:06;;;;;;;1.48;0.90;;;19.20;99.90;;;;;;5039764;28;20188;-76
2021/08/27 12:12:36;;;;;;;1.90;1.00;;;19.10;99.90;;;;;;5051344;28;20652;-77
2021/08/27 12:15:04;;;;;;;1.83;1.05;;;19.10;99.90;;;;;;5052480;28;20226;-76
2021/08/27 12:17:31;;;;;;;2.00;1.15;;;19.30;99.90;;;;;;5048141;28;20203;-77
2021/08/27 12:19:59;;;;;;;1.40;1.00;;;19.10;99.90;;;;;;5051797;28;20227;-77
2021/08/27 12:22:29;;;;;;;1.70;1.00;;;19.10;99.90;;;;;;5033079;28;20196;-76
2021/08/27 12:24:56;;;;;;;3.63;1.15;;;19.20;99.90;;;;;;5050350;28;20658;-76
2021/08/27 12:27:25;;;;;;;1.50;1.10;;;19.30;99.90;;;;;;5051305;28;20312;-76
2021/08/27 12:30:09;;;;;;;4.50;1.40;;;19.30;99.90;;;;;;5051291;28;20203;-77
2021/08/27 12:32:37;;;;;;;2.05;1.02;;;19.30;99.90;;;;;;5051063;28;20290;-77
2021/08/27 12:35:07;;;;;;;2.88;1.10;;;19.30;99.90;;;;;;5051673;28;20287;-76
2021/08/27 12:37:36;;;;;;;2.35;1.30;;;19.30;99.90;;;;;;5048515;28;20202;-76
2021/08/27 12:40:08;;;;;;;2.22;1.00;;;19.30;99.90;;;;;;5046835;28;20546;-77
2021/08/27 12:42:34;;;;;;;1.60;1.10;;;19.30;99.90;;;;;;5041584;28;20196;-77
2021/08/27 12:45:03;;;;;;;1.67;0.90;;;19.30;99.90;;;;;;5041677;28;20761;-77
2021/08/27 12:47:36;;;;;;;2.17;1.10;;;19.30;99.90;;;;;;5044633;28;20557;-76
2021/08/27 12:50:06;;;;;;;1.88;1.00;;;19.30;99.90;;;;;;5050903;28;20229;-77
2021/08/27 12:52:34;;;;;;;2.08;1.40;;;19.40;99.90;;;;;;5052306;28;20273;-78
2021/08/27 12:55:01;;;;;;;4.32;1.90;;;19.30;99.90;;;;;;5053390;28;20663;-78
2021/08/27 12:57:28;;;;;;;2.55;1.42;;;19.30;99.90;;;;;;5053898;28;20184;-78